createdAt,value
2019-02-23T00:00:16.099Z,-3.29
2019-02-23T00:02:45.467Z,-3.32
2019-02-23T00:05:14.909Z,-3.27
2019-02-23T00:07:44.259Z,-3.39
2019-02-23T00:10:13.631Z,-3.40
2019-02-23T00:12:42.980Z,-3.51
2019-02-23T00:15:12.343Z,-3.52
2019-02-23T00:17:41.689Z,-3.56
2019-02-23T00:20:11.060Z,-3.62
2019-02-23T00:22:40.412Z,-3.66
2019-02-23T00:25:09.782Z,-3.62
2019-02-23T00:27:39.113Z,-3.51
2019-02-23T00:30:08.871Z,-3.53
2019-02-23T00:32:38.208Z,-3.55
2019-02-23T00:35:07.951Z,-3.50
2019-02-23T00:37:37.286Z,-3.53
2019-02-23T00:40:07.563Z,-3.48
2019-02-23T00:42:36.899Z,-3.44
2019-02-23T00:45:06.263Z,-3.37
2019-02-23T00:47:35.599Z,-3.25
2019-02-23T00:50:04.962Z,-3.33
2019-02-23T00:52:34.298Z,-3.39
2019-02-23T00:55:04.747Z,-3.48
2019-02-23T00:57:34.079Z,-3.44
2019-02-23T01:00:04.377Z,-3.42
2019-02-23T01:02:33.704Z,-3.42
2019-02-23T01:05:03.129Z,-3.50
2019-02-23T01:07:32.467Z,-3.52
2019-02-23T01:10:04.008Z,-3.57
2019-02-23T01:12:33.352Z,-3.60
2019-02-23T01:15:02.731Z,-3.56
2019-02-23T01:17:32.088Z,-3.37
2019-02-23T01:20:01.474Z,-3.39
2019-02-23T01:22:30.851Z,-3.43
2019-02-23T01:25:00.360Z,-3.37
2019-02-23T01:27:29.752Z,-3.14
2019-02-23T01:29:59.105Z,-3.01
2019-02-23T01:32:28.465Z,-2.99
2019-02-23T01:34:57.806Z,-2.91
2019-02-23T01:37:27.178Z,-2.80
2019-02-23T01:39:56.523Z,-2.82
2019-02-23T01:42:25.887Z,-2.90
2019-02-23T01:44:55.228Z,-2.89
2019-02-23T01:47:24.596Z,-2.82
2019-02-23T01:49:58.750Z,-2.78
2019-02-23T01:52:25.012Z,-2.77
2019-02-23T01:54:54.359Z,-2.87
2019-02-23T01:57:23.731Z,-2.89
2019-02-23T01:59:53.071Z,-2.84
2019-02-23T02:02:22.439Z,-2.90
2019-02-23T02:04:51.785Z,-2.94
2019-02-23T02:07:21.157Z,-2.93
2019-02-23T02:09:50.499Z,-2.97
2019-02-23T02:12:20.335Z,-3.03
2019-02-23T02:14:49.680Z,-3.19
2019-02-23T02:17:19.036Z,-3.29
2019-02-23T02:19:48.374Z,-3.37
2019-02-23T02:22:17.738Z,-3.43
2019-02-23T02:24:47.078Z,-3.54
2019-02-23T02:27:16.463Z,-3.54
2019-02-23T02:29:45.800Z,-3.56
2019-02-23T02:32:15.169Z,-3.59
2019-02-23T02:34:44.517Z,-3.57
2019-02-23T02:37:13.889Z,-3.57
2019-02-23T02:39:43.229Z,-3.62
2019-02-23T02:42:12.592Z,-3.64
2019-02-23T02:44:41.934Z,-3.72
2019-02-23T02:47:11.302Z,-3.76
2019-02-23T02:49:40.638Z,-3.86
2019-02-23T02:52:10.008Z,-3.92
2019-02-23T02:54:39.744Z,-3.96
2019-02-23T02:57:09.171Z,-3.91
2019-02-23T02:59:38.494Z,-3.80
2019-02-23T03:02:07.953Z,-3.66
2019-02-23T03:04:37.287Z,-3.57
2019-02-23T03:07:07.144Z,-3.58
2019-02-23T03:09:36.708Z,-3.52
2019-02-23T03:12:06.076Z,-3.56
2019-02-23T03:14:36.057Z,-3.59
2019-02-23T03:17:05.953Z,-3.72
2019-02-23T03:19:35.329Z,-3.79
2019-02-23T03:22:04.665Z,-3.79
2019-02-23T03:24:34.230Z,-3.85
2019-02-23T03:27:03.564Z,-3.95
2019-02-23T03:29:32.916Z,-3.95
2019-02-23T03:32:02.378Z,-3.98
2019-02-23T03:34:31.750Z,-3.93
2019-02-23T03:37:01.094Z,-3.88
2019-02-23T03:39:30.464Z,-3.88
2019-02-23T03:41:59.800Z,-3.96
2019-02-23T03:44:29.174Z,-3.99
2019-02-23T03:46:58.513Z,-3.90
2019-02-23T03:49:27.895Z,-3.78
2019-02-23T03:51:57.230Z,-3.76
2019-02-23T03:54:26.651Z,-3.82
2019-02-23T03:56:56.988Z,-3.86
2019-02-23T03:59:26.364Z,-3.82
2019-02-23T04:01:55.699Z,-3.75
2019-02-23T04:04:25.127Z,-3.71
2019-02-23T04:06:54.467Z,-3.62
2019-02-23T04:09:23.830Z,-3.66
2019-02-23T04:11:53.168Z,-3.67
2019-02-23T04:14:22.519Z,-3.68
2019-02-23T04:16:51.853Z,-3.62
2019-02-23T04:19:21.217Z,-3.56
2019-02-23T04:21:50.640Z,-3.60
2019-02-23T04:24:19.998Z,-3.55
2019-02-23T04:26:49.372Z,-3.44
2019-02-23T04:29:18.706Z,-3.51
2019-02-23T04:31:48.038Z,-3.54
2019-02-23T04:34:17.405Z,-3.52
2019-02-23T04:36:46.811Z,-3.55
2019-02-23T04:39:16.185Z,-3.51
2019-02-23T04:41:45.520Z,-3.28
2019-02-23T04:44:14.897Z,-3.28
2019-02-23T04:46:44.236Z,-3.39
2019-02-23T04:49:13.600Z,-3.52
2019-02-23T04:51:42.936Z,-3.42
2019-02-23T04:54:12.303Z,-3.47
2019-02-23T04:56:41.637Z,-3.53
2019-02-23T04:59:11.379Z,-3.50
2019-02-23T05:01:40.872Z,-3.56
2019-02-23T05:04:10.298Z,-3.54
2019-02-23T05:06:39.630Z,-3.41
2019-02-23T05:09:09.079Z,-3.36
2019-02-23T05:11:38.413Z,-3.30
2019-02-23T05:14:07.791Z,-3.34
2019-02-23T05:16:37.926Z,-3.38
2019-02-23T05:19:07.286Z,-3.33
2019-02-23T05:21:36.640Z,-3.35
2019-02-23T05:24:06.142Z,-3.35
2019-02-23T05:26:35.651Z,-3.38
2019-02-23T05:29:05.024Z,-3.42
2019-02-23T05:31:34.374Z,-3.19
2019-02-23T05:34:04.120Z,-3.11
2019-02-23T05:36:33.524Z,-3.11
2019-02-23T05:39:03.763Z,-3.08
2019-02-23T05:41:33.095Z,-3.09
2019-02-23T05:44:02.465Z,-3.19
2019-02-23T05:46:31.806Z,-3.31
2019-02-23T05:49:01.175Z,-3.39
2019-02-23T05:51:38.371Z,-3.34
2019-02-23T05:54:01.587Z,-3.42
2019-02-23T05:56:30.922Z,-3.48
2019-02-23T05:59:00.315Z,-3.59
2019-02-23T06:01:29.748Z,-3.65
2019-02-23T06:03:59.260Z,-3.48
2019-02-23T06:06:28.700Z,-3.25
2019-02-23T06:08:58.058Z,-3.39
2019-02-23T06:11:27.433Z,-3.44
2019-02-23T06:13:56.778Z,-3.38
2019-02-23T06:16:26.212Z,-3.31
2019-02-23T06:18:55.624Z,-3.37
2019-02-23T06:21:24.998Z,-3.35
2019-02-23T06:23:54.339Z,-3.26
2019-02-23T06:26:23.710Z,-3.04
2019-02-23T06:28:53.084Z,-2.91
2019-02-23T06:31:22.450Z,-2.80
2019-02-23T06:33:51.797Z,-2.84
2019-02-23T06:36:21.158Z,-2.89
2019-02-23T06:38:50.495Z,-2.93
2019-02-23T06:41:19.906Z,-2.86
2019-02-23T06:43:49.203Z,-2.80
2019-02-23T06:46:18.587Z,-2.75
2019-02-23T06:48:47.922Z,-2.52
2019-02-23T06:51:17.349Z,-2.34
2019-02-23T06:53:46.691Z,-2.41
2019-02-23T06:56:16.062Z,-2.35
2019-02-23T06:58:45.396Z,-2.21
2019-02-23T07:01:15.040Z,-2.11
2019-02-23T07:03:44.377Z,-1.93
2019-02-23T07:06:13.757Z,-1.94
2019-02-23T07:08:43.096Z,-1.93
2019-02-23T07:11:12.484Z,-1.98
2019-02-23T07:13:41.827Z,-1.95
2019-02-23T07:16:11.191Z,-1.91
2019-02-23T07:18:40.534Z,-1.80
2019-02-23T07:21:09.896Z,-1.82
2019-02-23T07:23:39.236Z,-1.88
2019-02-23T07:26:08.925Z,-1.87
2019-02-23T07:28:38.274Z,-1.79
2019-02-23T07:31:07.632Z,-1.67
2019-02-23T07:33:36.973Z,-1.69
2019-02-23T07:36:06.754Z,-1.73
2019-02-23T07:38:36.098Z,-1.65
2019-02-23T07:41:05.926Z,-1.53
2019-02-23T07:43:35.274Z,-1.49
2019-02-23T07:46:04.632Z,-1.36
2019-02-23T07:48:33.965Z,-1.25
2019-02-23T07:51:03.332Z,-1.30
2019-02-23T07:53:32.664Z,-1.22
2019-02-23T07:56:02.018Z,-1.31
2019-02-23T07:58:31.360Z,-1.17
2019-02-23T08:01:00.731Z,-1.02
2019-02-23T08:03:30.065Z,-1.04
2019-02-23T08:05:59.429Z,-0.87
2019-02-23T08:08:28.767Z,-0.74
2019-02-23T08:10:58.134Z,-0.73
2019-02-23T08:13:27.483Z,-0.65
2019-02-23T08:15:56.865Z,-0.51
2019-02-23T08:18:26.202Z,-0.37
2019-02-23T08:20:55.568Z,-0.26
2019-02-23T08:23:24.902Z,-0.29
2019-02-23T08:25:55.992Z,-0.21
2019-02-23T08:28:25.354Z,-0.11
2019-02-23T08:30:54.741Z,0.01
2019-02-23T08:33:24.064Z,0.15
2019-02-23T08:35:53.414Z,0.19
2019-02-23T08:38:22.766Z,0.41
2019-02-23T08:40:52.102Z,0.42
2019-02-23T08:43:21.474Z,0.45
2019-02-23T08:45:51.081Z,0.44
2019-02-23T08:48:20.453Z,0.44
2019-02-23T08:50:49.789Z,0.48
2019-02-23T08:53:19.149Z,0.74
2019-02-23T08:55:48.490Z,0.89
2019-02-23T08:58:17.851Z,1.04
2019-02-23T09:00:47.186Z,1.19
2019-02-23T09:03:16.545Z,1.37
2019-02-23T09:05:45.878Z,1.61
2019-02-23T09:08:15.239Z,2.02
2019-02-23T09:10:44.572Z,2.48
2019-02-23T09:13:13.948Z,2.54
2019-02-23T09:15:43.289Z,2.74
2019-02-23T09:18:12.653Z,3.28
2019-02-23T09:20:42.013Z,3.08
2019-02-23T09:23:11.335Z,2.78
2019-02-23T09:25:40.672Z,2.66
2019-02-23T09:28:10.045Z,2.33
2019-02-23T09:30:39.741Z,2.01
2019-02-23T09:33:09.103Z,1.76
2019-02-23T09:35:38.449Z,1.80
2019-02-23T09:38:08.029Z,1.79
2019-02-23T09:40:37.351Z,1.44
2019-02-23T09:43:07.122Z,1.41
2019-02-23T09:45:36.765Z,1.43
2019-02-23T09:48:06.136Z,1.20
2019-02-23T09:50:35.467Z,1.42
2019-02-23T09:53:11.134Z,1.43
2019-02-23T09:55:35.857Z,1.54
2019-02-23T09:58:05.221Z,1.73
2019-02-23T10:00:34.548Z,1.77
2019-02-23T10:03:04.193Z,1.84
2019-02-23T10:05:33.522Z,1.67
2019-02-23T10:08:02.879Z,1.85
2019-02-23T10:10:32.207Z,2.01
2019-02-23T10:13:01.563Z,2.27
2019-02-23T10:15:30.891Z,2.49
2019-02-23T10:18:00.417Z,2.88
2019-02-23T10:20:29.748Z,2.52
2019-02-23T10:22:59.098Z,2.21
2019-02-23T10:25:28.436Z,2.19
2019-02-23T10:27:59.291Z,1.79
2019-02-23T10:30:28.691Z,2.04
2019-02-23T10:32:58.059Z,1.92
2019-02-23T10:35:27.392Z,2.64
2019-02-23T10:37:56.757Z,2.78
2019-02-23T10:40:26.093Z,2.77
2019-02-23T10:42:55.442Z,2.71
2019-02-23T10:45:24.769Z,2.69
2019-02-23T10:47:54.116Z,2.65
2019-02-23T10:50:23.439Z,2.97
2019-02-23T10:52:52.821Z,3.24
2019-02-23T10:55:22.130Z,3.63
2019-02-23T10:57:51.570Z,3.69
2019-02-23T11:00:22.351Z,3.92
2019-02-23T11:02:51.708Z,3.91
2019-02-23T11:05:21.108Z,3.96
2019-02-23T11:07:50.471Z,4.14
2019-02-23T11:10:20.070Z,4.42
2019-02-23T11:12:49.447Z,4.86
2019-02-23T11:15:20.458Z,4.90
2019-02-23T11:17:49.828Z,4.60
2019-02-23T11:20:19.438Z,4.20
2019-02-23T11:22:48.790Z,4.23
2019-02-23T11:25:18.276Z,4.28
2019-02-23T11:27:47.586Z,4.06
2019-02-23T11:30:17.024Z,4.91
2019-02-23T11:32:46.355Z,5.14
2019-02-23T11:35:17.357Z,5.32
2019-02-23T11:37:47.134Z,5.58
2019-02-23T11:40:16.752Z,5.61
2019-02-23T11:42:46.072Z,6.06
2019-02-23T11:45:15.446Z,6.20
2019-02-23T11:47:44.768Z,6.93
2019-02-23T11:50:14.397Z,7.03
2019-02-23T11:52:43.717Z,6.34
2019-02-23T11:55:13.078Z,5.90
2019-02-23T11:57:42.406Z,5.58
2019-02-23T12:00:13.700Z,5.04
2019-02-23T12:02:52.111Z,4.58
2019-02-23T12:05:14.073Z,4.69
2019-02-23T12:07:43.404Z,4.25
2019-02-23T12:10:16.530Z,3.99
2019-02-23T12:12:45.854Z,4.04
2019-02-23T12:15:15.207Z,3.88
2019-02-23T12:17:44.542Z,3.39
2019-02-23T12:20:13.902Z,3.17
2019-02-23T12:22:43.232Z,2.87
2019-02-23T12:25:15.747Z,2.82
2019-02-23T12:27:43.643Z,3.00
2019-02-23T12:30:13.001Z,3.03
2019-02-23T12:32:42.307Z,2.94
2019-02-23T12:35:12.064Z,3.30
2019-02-23T12:37:41.397Z,3.46
2019-02-23T12:40:11.152Z,3.56
2019-02-23T12:42:40.483Z,3.28
2019-02-23T12:45:13.383Z,2.96
2019-02-23T12:47:42.710Z,2.83
2019-02-23T12:50:13.013Z,2.75
2019-02-23T12:52:42.351Z,2.89
2019-02-23T12:55:13.100Z,3.11
2019-02-23T12:57:42.425Z,3.21
2019-02-23T13:00:16.976Z,3.13
2019-02-23T13:02:46.302Z,3.50
2019-02-23T13:05:15.662Z,4.58
2019-02-23T13:07:44.988Z,5.26
2019-02-23T13:10:14.362Z,5.49
2019-02-23T13:13:04.663Z,5.50
2019-02-23T13:15:40.150Z,5.37
2019-02-23T13:18:24.696Z,5.55
2019-02-23T13:21:18.018Z,5.85
2019-02-23T13:23:59.135Z,6.12
2019-02-23T13:26:40.572Z,6.39
2019-02-23T13:29:21.963Z,6.96
2019-02-23T13:31:54.626Z,7.00
2019-02-23T13:34:36.167Z,7.17
2019-02-23T13:37:11.288Z,7.09
2019-02-23T13:40:18.685Z,7.14
2019-02-23T13:43:20.004Z,6.77
2019-02-23T13:49:24.755Z,6.00
2019-02-23T13:52:09.075Z,5.49
2019-02-23T13:54:50.336Z,5.15
2019-02-23T13:57:34.558Z,5.14
2019-02-23T14:00:18.804Z,5.63
2019-02-23T14:03:13.513Z,6.04
2019-02-23T14:05:51.484Z,6.15
2019-02-23T14:08:41.718Z,5.59
2019-02-23T14:11:19.670Z,5.66
2019-02-23T14:13:57.894Z,5.35
2019-02-23T14:16:32.916Z,5.37
2019-02-23T14:19:14.307Z,5.25
2019-02-23T14:22:03.993Z,5.15
2019-02-23T14:24:50.418Z,4.58
2019-02-23T14:27:22.798Z,4.08
2019-02-23T14:30:03.914Z,3.86
2019-02-23T14:32:42.038Z,4.05
2019-02-23T14:35:14.798Z,4.10
2019-02-23T14:37:56.117Z,4.20
2019-02-23T14:40:43.735Z,4.15
2019-02-23T14:43:28.235Z,3.94
2019-02-23T14:46:21.326Z,3.81
2019-02-23T14:49:05.473Z,3.25
2019-02-23T14:51:54.480Z,3.15
2019-02-23T14:54:35.687Z,3.22
2019-02-23T14:57:23.290Z,3.44
2019-02-23T15:00:07.752Z,3.36
2019-02-23T15:02:48.966Z,3.27
2019-02-23T15:05:36.404Z,3.28
2019-02-23T15:08:14.862Z,3.05
2019-02-23T15:10:59.319Z,2.97
2019-02-23T15:14:03.437Z,3.02
2019-02-23T15:16:52.554Z,3.04
2019-02-23T15:19:58.322Z,3.04
2019-02-23T15:22:30.909Z,3.08
2019-02-23T15:27:46.255Z,2.99
2019-02-23T15:27:49.016Z,3.05
2019-02-23T15:30:41.262Z,2.95
2019-02-23T15:33:22.598Z,2.85
2019-02-23T15:36:07.378Z,2.62
2019-02-23T15:38:54.775Z,2.64
2019-02-23T15:41:45.178Z,2.53
2019-02-23T15:44:26.368Z,2.50
2019-02-23T15:47:31.779Z,2.39
2019-02-23T15:50:12.543Z,2.19
2019-02-23T15:52:32.131Z,2.15
2019-02-23T15:55:01.462Z,2.01
2019-02-23T15:57:30.835Z,2.05
2019-02-23T16:00:00.397Z,2.13
2019-02-23T16:02:29.719Z,2.21
2019-02-23T16:04:59.063Z,2.23
2019-02-23T16:07:28.442Z,2.03
2019-02-23T16:09:57.819Z,2.00
2019-02-23T16:12:27.145Z,1.98
2019-02-23T16:14:56.485Z,2.00
2019-02-23T16:17:25.831Z,1.98
2019-02-23T16:19:55.221Z,1.98
2019-02-23T16:22:24.600Z,2.04
2019-02-23T16:24:53.945Z,2.04
2019-02-23T16:27:23.295Z,2.01
2019-02-23T16:29:52.616Z,1.96
2019-02-23T16:32:21.979Z,1.91
2019-02-23T16:34:51.316Z,1.87
2019-02-23T16:37:20.685Z,1.80
2019-02-23T16:39:50.021Z,1.75
2019-02-23T16:42:19.956Z,1.74
2019-02-23T16:44:49.291Z,1.73
2019-02-23T16:47:18.755Z,1.79
2019-02-23T16:49:48.106Z,1.73
2019-02-23T16:52:17.548Z,1.63
2019-02-23T16:54:46.881Z,1.55
2019-02-23T16:57:17.438Z,1.57
2019-02-23T16:59:47.114Z,1.46
2019-02-23T17:02:16.394Z,1.37
2019-02-23T17:04:53.501Z,1.25
2019-02-23T17:07:16.937Z,1.11
2019-02-23T17:09:46.248Z,1.03
2019-02-23T17:12:15.618Z,0.94
2019-02-23T17:14:44.983Z,0.90
2019-02-23T17:17:14.322Z,0.96
2019-02-23T17:19:44.774Z,1.05
2019-02-23T17:22:14.178Z,1.05
2019-02-23T17:24:43.551Z,0.83
2019-02-23T17:27:12.894Z,0.70
2019-02-23T17:29:42.293Z,0.69
2019-02-23T17:32:11.632Z,0.62
2019-02-23T17:34:41.092Z,0.57
2019-02-23T17:37:10.422Z,0.50
2019-02-23T17:39:40.251Z,0.43
2019-02-23T17:42:09.730Z,0.33
2019-02-23T17:44:39.389Z,0.29
2019-02-23T17:47:08.731Z,0.36
2019-02-23T17:49:38.102Z,0.52
2019-02-23T17:52:07.448Z,0.55
2019-02-23T17:54:37.359Z,0.44
2019-02-23T17:57:06.705Z,0.36
2019-02-23T17:59:36.135Z,0.22
2019-02-23T18:02:05.687Z,0.15
2019-02-23T18:04:35.040Z,0.07
2019-02-23T18:07:04.376Z,0.08
2019-02-23T18:09:33.749Z,0.04
2019-02-23T18:12:03.091Z,-0.02
2019-02-23T18:14:32.466Z,-0.01
2019-02-23T18:17:01.807Z,-0.01
2019-02-23T18:19:31.171Z,0.02
2019-02-23T18:22:00.583Z,0.00
2019-02-23T18:24:29.968Z,-0.06
2019-02-23T18:26:59.304Z,-0.12
2019-02-23T18:29:28.671Z,-0.18
2019-02-23T18:31:58.008Z,-0.26
2019-02-23T18:34:27.414Z,-0.28
2019-02-23T18:36:56.757Z,-0.17
2019-02-23T18:39:26.141Z,-0.09
2019-02-23T18:41:55.495Z,-0.15
2019-02-23T18:44:24.878Z,-0.10
2019-02-23T18:46:54.240Z,-0.11
2019-02-23T18:49:23.603Z,-0.22
2019-02-23T18:51:52.953Z,-0.22
2019-02-23T18:54:23.093Z,-0.30
2019-02-23T18:56:52.490Z,-0.32
2019-02-23T18:59:22.070Z,-0.29
2019-02-23T19:01:51.431Z,-0.31
2019-02-23T19:04:20.810Z,-0.36
2019-02-23T19:06:50.158Z,-0.38
2019-02-23T19:09:19.528Z,-0.32
2019-02-23T19:11:49.373Z,-0.28
2019-02-23T19:14:22.510Z,-0.22
2019-02-23T19:16:51.855Z,-0.18
2019-02-23T19:19:21.251Z,-0.13
2019-02-23T19:21:52.004Z,-0.15
2019-02-23T19:24:21.463Z,-0.19
2019-02-23T19:26:50.816Z,-0.35
2019-02-23T19:29:20.330Z,-0.52
2019-02-23T19:31:49.682Z,-0.64
2019-02-23T19:34:19.083Z,-0.69
2019-02-23T19:36:48.464Z,-0.75
2019-02-23T19:39:17.800Z,-0.79
2019-02-23T19:41:47.142Z,-0.83
2019-02-23T19:44:16.543Z,-0.86
2019-02-23T19:46:49.030Z,-0.85
2019-02-23T19:49:18.408Z,-0.90
2019-02-23T19:51:47.917Z,-0.95
2019-02-23T19:54:17.302Z,-1.02
2019-02-23T19:56:47.142Z,-1.05
2019-02-23T19:59:16.525Z,-1.08
2019-02-23T20:01:45.899Z,-1.13
2019-02-23T20:04:15.414Z,-1.23
2019-02-23T20:06:44.776Z,-1.33
2019-02-23T20:09:14.116Z,-1.33
2019-02-23T20:11:43.650Z,-1.34
2019-02-23T20:14:13.003Z,-1.24
2019-02-23T20:16:42.424Z,-1.04
2019-02-23T20:19:11.773Z,-0.87
2019-02-23T20:21:41.607Z,-0.86
2019-02-23T20:24:10.957Z,-0.86
2019-02-23T20:26:42.180Z,-0.91
2019-02-23T20:29:11.575Z,-0.82
2019-02-23T20:31:40.948Z,-0.80
2019-02-23T20:34:10.294Z,-0.85
2019-02-23T20:36:39.875Z,-0.95
2019-02-23T20:39:09.558Z,-1.00
2019-02-23T20:41:38.959Z,-1.02
2019-02-23T20:44:08.300Z,-1.05
2019-02-23T20:46:37.672Z,-1.15
2019-02-23T20:49:07.015Z,-1.22
2019-02-23T20:51:36.376Z,-1.21
2019-02-23T20:54:05.735Z,-1.19
2019-02-23T20:56:35.128Z,-1.08
2019-02-23T20:59:04.475Z,-0.90
2019-02-23T21:01:33.852Z,-0.79
2019-02-23T21:04:03.197Z,-0.71
2019-02-23T21:06:32.579Z,-0.81
2019-02-23T21:09:01.998Z,-0.93
2019-02-23T21:11:31.367Z,-0.95
2019-02-23T21:14:00.715Z,-1.08
2019-02-23T21:16:30.096Z,-1.06
2019-02-23T21:18:59.432Z,-1.09
2019-02-23T21:21:28.810Z,-1.07
2019-02-23T21:23:58.172Z,-1.09
2019-02-23T21:26:27.552Z,-1.05
2019-02-23T21:28:56.885Z,-0.87
2019-02-23T21:31:26.269Z,-0.82
2019-02-23T21:33:55.617Z,-0.86
2019-02-23T21:36:25.000Z,-0.81
2019-02-23T21:38:54.374Z,-0.82
2019-02-23T21:41:23.720Z,-0.83
2019-02-23T21:43:53.053Z,-0.80
2019-02-23T21:46:22.450Z,-0.80
2019-02-23T21:48:51.790Z,-0.83
2019-02-23T21:51:21.178Z,-0.81
2019-02-23T21:53:50.533Z,-0.78
2019-02-23T21:56:19.906Z,-0.67
2019-02-23T21:58:49.271Z,-0.45
2019-02-23T22:01:18.619Z,-0.38
2019-02-23T22:03:47.986Z,-0.46
2019-02-23T22:06:17.339Z,-0.52
2019-02-23T22:08:46.709Z,-0.60
2019-02-23T22:11:16.045Z,-0.72
2019-02-23T22:13:45.412Z,-0.78
2019-02-23T22:16:14.831Z,-0.80
2019-02-23T22:18:44.218Z,-0.81
2019-02-23T22:21:14.498Z,-0.72
2019-02-23T22:23:43.871Z,-0.64
2019-02-23T22:26:13.215Z,-0.56
2019-02-23T22:28:42.576Z,-0.48
2019-02-23T22:31:11.913Z,-0.51
2019-02-23T22:33:41.290Z,-0.60
2019-02-23T22:36:12.779Z,-0.52
2019-02-23T22:38:41.878Z,-0.45
2019-02-23T22:41:11.222Z,-0.40
2019-02-23T22:43:40.608Z,-0.41
2019-02-23T22:46:09.949Z,-0.42
2019-02-23T22:48:39.770Z,-0.43
2019-02-23T22:51:09.122Z,-0.46
2019-02-23T22:53:38.878Z,-0.45
2019-02-23T22:56:08.210Z,-0.50
2019-02-23T22:58:37.584Z,-0.47
2019-02-23T23:01:07.092Z,-0.57
2019-02-23T23:03:36.468Z,-0.61
2019-02-23T23:06:05.799Z,-0.62
2019-02-23T23:08:35.171Z,-0.62
2019-02-23T23:11:04.518Z,-0.54
2019-02-23T23:13:33.895Z,-0.52
2019-02-23T23:16:03.400Z,-0.47
2019-02-23T23:18:32.773Z,-0.43
2019-02-23T23:21:02.111Z,-0.41
2019-02-23T23:23:31.514Z,-0.32
2019-02-23T23:26:00.860Z,-0.45
2019-02-23T23:28:30.221Z,-0.49
2019-02-23T23:30:59.551Z,-0.51
2019-02-23T23:33:28.917Z,-0.42
2019-02-23T23:35:58.259Z,-0.48
2019-02-23T23:38:27.629Z,-0.59
2019-02-23T23:40:56.975Z,-0.63
2019-02-23T23:43:26.342Z,-0.67
2019-02-23T23:45:55.688Z,-0.47
2019-02-23T23:48:25.055Z,-0.42
2019-02-23T23:50:54.395Z,-0.39
2019-02-23T23:53:23.759Z,-0.47
2019-02-23T23:55:53.102Z,-0.48
2019-02-23T23:58:22.480Z,-0.54
